sensor_id;sensor_type;location;lat;lon;timestamp;pressure;altitude;pressure_sealevel;temperature;humidity
9415;BME280;4746;35.664;139.738;2023-07-29T00:01:10;100505.03;;;35.55;45.82
9415;BME280;4746;35.664;139.738;2023-07-29T00:03:38;100498.84;;;35.54;45.88
9415;BME280;4746;35.664;139.738;2023-07-29T00:06:05;100497.16;;;35.63;45.30
9415;BME280;4746;35.664;139.738;2023-07-29T00:08:33;100496.88;;;35.66;44.99
9415;BME280;4746;35.664;139.738;2023-07-29T00:11:01;100493.78;;;35.70;45.27
9415;BME280;4746;35.664;139.738;2023-07-29T00:13:29;100490.31;;;35.70;45.86
9415;BME280;4746;35.664;139.738;2023-07-29T00:15:57;100499.13;;;35.70;45.21
9415;BME280;4746;35.664;139.738;2023-07-29T00:18:24;100491.28;;;35.69;45.38
9415;BME280;4746;35.664;139.738;2023-07-29T00:20:52;100489.28;;;35.71;45.65
9415;BME280;4746;35.664;139.738;2023-07-29T00:23:19;100488.72;;;35.77;45.63
9415;BME280;4746;35.664;139.738;2023-07-29T00:25:48;100480.44;;;35.80;44.57
9415;BME280;4746;35.664;139.738;2023-07-29T00:28:16;100474.41;;;35.87;45.02
9415;BME280;4746;35.664;139.738;2023-07-29T00:30:43;100469.09;;;35.97;45.00
9415;BME280;4746;35.664;139.738;2023-07-29T00:33:11;100483.13;;;35.99;44.96
9415;BME280;4746;35.664;139.738;2023-07-29T00:35:38;100468.81;;;36.00;44.53
9415;BME280;4746;35.664;139.738;2023-07-29T00:38:05;100469.38;;;35.94;44.68
9415;BME280;4746;35.664;139.738;2023-07-29T00:40:36;100466.81;;;35.83;45.03
9415;BME280;4746;35.664;139.738;2023-07-29T00:43:04;100465.72;;;35.76;45.01
9415;BME280;4746;35.664;139.738;2023-07-29T00:45:33;100467.38;;;35.86;44.84
9415;BME280;4746;35.664;139.738;2023-07-29T00:48:04;100482.28;;;35.98;44.29
9415;BME280;4746;35.664;139.738;2023-07-29T00:50:33;100468.25;;;35.96;44.84
9415;BME280;4746;35.664;139.738;2023-07-29T00:53:01;100469.50;;;36.02;44.49
9415;BME280;4746;35.664;139.738;2023-07-29T00:55:29;100462.84;;;36.15;44.64
9415;BME280;4746;35.664;139.738;2023-07-29T00:57:57;100464.81;;;36.22;43.81
9415;BME280;4746;35.664;139.738;2023-07-29T01:00:25;100458.59;;;36.31;43.71
9415;BME280;4746;35.664;139.738;2023-07-29T01:02:53;100453.09;;;36.42;43.92
9415;BME280;4746;35.664;139.738;2023-07-29T01:05:22;100453.63;;;36.55;43.41
9415;BME280;4746;35.664;139.738;2023-07-29T01:17:15;100440.41;;;36.80;42.96
9415;BME280;4746;35.664;139.738;2023-07-29T01:20:04;100444.03;;;36.89;42.61
9415;BME280;4746;35.664;139.738;2023-07-29T01:22:38;100439.84;;;36.77;42.77
9415;BME280;4746;35.664;139.738;2023-07-29T01:25:07;100432.13;;;36.83;42.75
9415;BME280;4746;35.664;139.738;2023-07-29T01:27:35;100422.97;;;36.86;42.64
9415;BME280;4746;35.664;139.738;2023-07-29T01:30:05;100434.75;;;36.93;42.71
9415;BME280;4746;35.664;139.738;2023-07-29T01:33:33;100427.34;;;37.04;42.42
9415;BME280;4746;35.664;139.738;2023-07-29T01:36:11;100428.19;;;37.05;41.94
9415;BME280;4746;35.664;139.738;2023-07-29T01:38:43;100433.22;;;37.08;42.29
9415;BME280;4746;35.664;139.738;2023-07-29T01:41:12;100424.97;;;37.01;41.68
9415;BME280;4746;35.664;139.738;2023-07-29T01:43:41;100423.28;;;37.00;41.29
9415;BME280;4746;35.664;139.738;2023-07-29T01:46:12;100425.28;;;36.98;41.35
9415;BME280;4746;35.664;139.738;2023-07-29T01:48:41;100424.44;;;36.98;41.06
9415;BME280;4746;35.664;139.738;2023-07-29T01:51:10;100427.13;;;36.98;41.04
9415;BME280;4746;35.664;139.738;2023-07-29T01:53:39;100417.09;;;37.00;41.43
9415;BME280;4746;35.664;139.738;2023-07-29T01:56:07;100418.41;;;36.96;41.23
9415;BME280;4746;35.664;139.738;2023-07-29T01:58:34;100418.94;;;36.99;41.04
9415;BME280;4746;35.664;139.738;2023-07-29T02:01:02;100413.16;;;37.04;40.75
9415;BME280;4746;35.664;139.738;2023-07-29T02:03:29;100406.28;;;37.01;40.72
9415;BME280;4746;35.664;139.738;2023-07-29T02:05:57;100413.88;;;36.96;40.73
9415;BME280;4746;35.664;139.738;2023-07-29T02:08:24;100415.72;;;36.96;40.99
9415;BME280;4746;35.664;139.738;2023-07-29T02:10:52;100417.09;;;37.00;41.10
9415;BME280;4746;35.664;139.738;2023-07-29T02:13:19;100415.81;;;37.04;40.78
9415;BME280;4746;35.664;139.738;2023-07-29T02:15:47;100406.13;;;37.03;40.15
9415;BME280;4746;35.664;139.738;2023-07-29T02:18:14;100403.72;;;37.00;40.01
9415;BME280;4746;35.664;139.738;2023-07-29T02:20:42;100401.75;;;37.02;39.71
9415;BME280;4746;35.664;139.738;2023-07-29T02:23:16;100409.38;;;36.97;39.70
9415;BME280;4746;35.664;139.738;2023-07-29T02:25:44;100397.22;;;37.02;38.85
9415;BME280;4746;35.664;139.738;2023-07-29T02:28:12;100400.94;;;37.01;39.48
9415;BME280;4746;35.664;139.738;2023-07-29T02:30:42;100399.41;;;36.99;39.59
9415;BME280;4746;35.664;139.738;2023-07-29T02:33:11;100384.34;;;36.98;39.47
9415;BME280;4746;35.664;139.738;2023-07-29T02:35:41;100385.34;;;36.97;39.80
9415;BME280;4746;35.664;139.738;2023-07-29T02:38:11;100388.00;;;36.97;40.07
9415;BME280;4746;35.664;139.738;2023-07-29T02:40:39;100392.19;;;36.99;39.93
9415;BME280;4746;35.664;139.738;2023-07-29T02:43:07;100399.91;;;37.02;39.89
9415;BME280;4746;35.664;139.738;2023-07-29T02:45:35;100410.81;;;36.91;39.71
9415;BME280;4746;35.664;139.738;2023-07-29T02:48:02;100391.47;;;36.80;39.95
9415;BME280;4746;35.664;139.738;2023-07-29T02:50:30;100374.28;;;36.82;40.06
9415;BME280;4746;35.664;139.738;2023-07-29T02:52:58;100377.06;;;36.90;40.02
9415;BME280;4746;35.664;139.738;2023-07-29T02:55:26;100372.88;;;37.05;39.71
9415;BME280;4746;35.664;139.738;2023-07-29T02:57:54;100361.81;;;37.00;39.38
9415;BME280;4746;35.664;139.738;2023-07-29T03:00:21;100381.72;;;37.06;39.05
9415;BME280;4746;35.664;139.738;2023-07-29T03:02:51;100356.38;;;37.10;39.04
9415;BME280;4746;35.664;139.738;2023-07-29T03:05:18;100373.47;;;37.17;39.15
9415;BME280;4746;35.664;139.738;2023-07-29T03:07:46;100370.06;;;37.24;38.80
9415;BME280;4746;35.664;139.738;2023-07-29T03:11:07;100351.94;;;37.36;38.48
9415;BME280;4746;35.664;139.738;2023-07-29T03:13:42;100371.44;;;37.28;38.82
9415;BME280;4746;35.664;139.738;2023-07-29T03:16:15;100363.44;;;37.28;39.33
9415;BME280;4746;35.664;139.738;2023-07-29T03:18:44;100358.44;;;37.33;39.17
9415;BME280;4746;35.664;139.738;2023-07-29T03:21:12;100354.69;;;37.44;38.53
9415;BME280;4746;35.664;139.738;2023-07-29T03:23:40;100352.59;;;37.55;38.87
9415;BME280;4746;35.664;139.738;2023-07-29T03:26:08;100354.28;;;37.73;38.84
9415;BME280;4746;35.664;139.738;2023-07-29T03:28:41;100357.56;;;37.93;37.70
9415;BME280;4746;35.664;139.738;2023-07-29T03:31:10;100362.19;;;38.08;37.49
9415;BME280;4746;35.664;139.738;2023-07-29T03:33:39;100354.91;;;38.18;37.38
9415;BME280;4746;35.664;139.738;2023-07-29T03:36:07;100350.56;;;38.25;37.51
9415;BME280;4746;35.664;139.738;2023-07-29T03:38:34;100346.91;;;38.34;37.03
9415;BME280;4746;35.664;139.738;2023-07-29T03:41:08;100346.78;;;38.43;36.29
9415;BME280;4746;35.664;139.738;2023-07-29T03:43:36;100355.03;;;38.58;37.18
9415;BME280;4746;35.664;139.738;2023-07-29T03:46:04;100354.13;;;38.67;36.33
9415;BME280;4746;35.664;139.738;2023-07-29T03:48:32;100352.47;;;38.74;36.78
9415;BME280;4746;35.664;139.738;2023-07-29T03:50:59;100346.28;;;38.81;36.29
9415;BME280;4746;35.664;139.738;2023-07-29T03:53:27;100341.94;;;38.88;36.45
9415;BME280;4746;35.664;139.738;2023-07-29T03:55:54;100347.47;;;38.95;36.44
9415;BME280;4746;35.664;139.738;2023-07-29T03:58:23;100352.34;;;39.07;36.64
9415;BME280;4746;35.664;139.738;2023-07-29T04:00:50;100340.13;;;39.12;36.74
9415;BME280;4746;35.664;139.738;2023-07-29T04:03:18;100343.66;;;39.21;36.89
9415;BME280;4746;35.664;139.738;2023-07-29T04:05:45;100337.47;;;39.20;36.70
9415;BME280;4746;35.664;139.738;2023-07-29T04:08:13;100335.13;;;39.25;36.95
9415;BME280;4746;35.664;139.738;2023-07-29T04:10:56;100329.72;;;39.41;37.16
9415;BME280;4746;35.664;139.738;2023-07-29T04:13:24;100321.72;;;39.49;36.73
9415;BME280;4746;35.664;139.738;2023-07-29T04:15:51;100343.34;;;39.56;36.08
9415;BME280;4746;35.664;139.738;2023-07-29T04:18:19;100327.38;;;39.70;36.64
9415;BME280;4746;35.664;139.738;2023-07-29T04:20:46;100331.03;;;39.85;36.52
9415;BME280;4746;35.664;139.738;2023-07-29T04:23:15;100339.75;;;40.03;35.93
9415;BME280;4746;35.664;139.738;2023-07-29T04:25:42;100321.53;;;40.29;35.30
9415;BME280;4746;35.664;139.738;2023-07-29T04:28:10;100319.09;;;40.49;35.15
9415;BME280;4746;35.664;139.738;2023-07-29T04:30:37;100322.56;;;40.58;34.82
9415;BME280;4746;35.664;139.738;2023-07-29T04:33:04;100319.97;;;40.64;35.40
9415;BME280;4746;35.664;139.738;2023-07-29T04:35:32;100325.13;;;40.82;34.92
9415;BME280;4746;35.664;139.738;2023-07-29T04:37:59;100327.50;;;40.99;34.40
9415;BME280;4746;35.664;139.738;2023-07-29T04:40:27;100324.41;;;41.10;34.38
9415;BME280;4746;35.664;139.738;2023-07-29T04:42:55;100322.31;;;41.20;34.54
9415;BME280;4746;35.664;139.738;2023-07-29T04:45:23;100312.41;;;41.21;33.98
9415;BME280;4746;35.664;139.738;2023-07-29T04:47:51;100311.59;;;41.34;33.66
9415;BME280;4746;35.664;139.738;2023-07-29T04:50:18;100309.97;;;41.48;33.88
9415;BME280;4746;35.664;139.738;2023-07-29T04:52:46;100322.34;;;41.57;33.76
9415;BME280;4746;35.664;139.738;2023-07-29T04:55:14;100313.53;;;41.63;33.45
9415;BME280;4746;35.664;139.738;2023-07-29T04:57:41;100310.28;;;41.82;32.89
9415;BME280;4746;35.664;139.738;2023-07-29T05:00:09;100313.66;;;41.84;33.03
9415;BME280;4746;35.664;139.738;2023-07-29T05:02:37;100316.16;;;41.85;32.99
9415;BME280;4746;35.664;139.738;2023-07-29T05:05:05;100306.16;;;41.94;32.77
9415;BME280;4746;35.664;139.738;2023-07-29T05:07:32;100300.38;;;41.96;32.62
9415;BME280;4746;35.664;139.738;2023-07-29T05:10:00;100318.31;;;42.18;31.86
9415;BME280;4746;35.664;139.738;2023-07-29T05:12:27;100317.91;;;42.21;32.00
9415;BME280;4746;35.664;139.738;2023-07-29T05:14:56;100300.66;;;42.16;31.40
9415;BME280;4746;35.664;139.738;2023-07-29T05:17:23;100311.22;;;42.17;30.77
9415;BME280;4746;35.664;139.738;2023-07-29T05:19:51;100317.34;;;42.26;30.66
9415;BME280;4746;35.664;139.738;2023-07-29T05:22:18;100321.06;;;42.25;30.45
9415;BME280;4746;35.664;139.738;2023-07-29T05:24:46;100319.19;;;42.25;29.75
9415;BME280;4746;35.664;139.738;2023-07-29T05:27:13;100321.91;;;42.11;29.78
9415;BME280;4746;35.664;139.738;2023-07-29T05:29:41;100305.38;;;42.14;30.70
9415;BME280;4746;35.664;139.738;2023-07-29T05:32:08;100312.06;;;42.32;29.90
9415;BME280;4746;35.664;139.738;2023-07-29T05:34:36;100323.56;;;42.41;29.72
9415;BME280;4746;35.664;139.738;2023-07-29T05:37:04;100314.88;;;42.39;29.78
9415;BME280;4746;35.664;139.738;2023-07-29T05:39:31;100319.31;;;42.17;30.34
9415;BME280;4746;35.664;139.738;2023-07-29T05:42:00;100307.13;;;42.21;30.27
9415;BME280;4746;35.664;139.738;2023-07-29T05:44:29;100314.94;;;42.45;30.67
9415;BME280;4746;35.664;139.738;2023-07-29T05:46:59;100313.41;;;42.92;29.78
9415;BME280;4746;35.664;139.738;2023-07-29T05:49:28;100311.94;;;43.59;29.38
9415;BME280;4746;35.664;139.738;2023-07-29T05:51:56;100302.81;;;44.27;28.55
9415;BME280;4746;35.664;139.738;2023-07-29T05:54:23;100310.91;;;44.68;27.75
9415;BME280;4746;35.664;139.738;2023-07-29T05:56:51;100316.81;;;45.03;27.36
9415;BME280;4746;35.664;139.738;2023-07-29T05:59:20;100316.63;;;45.11;27.38
9415;BME280;4746;35.664;139.738;2023-07-29T06:01:47;100310.38;;;45.11;27.04
9415;BME280;4746;35.664;139.738;2023-07-29T06:04:15;100303.50;;;45.28;27.01
9415;BME280;4746;35.664;139.738;2023-07-29T06:06:42;100307.06;;;45.67;26.59
9415;BME280;4746;35.664;139.738;2023-07-29T06:09:10;100311.34;;;46.07;26.33
9415;BME280;4746;35.664;139.738;2023-07-29T06:11:37;100321.22;;;46.51;25.61
9415;BME280;4746;35.664;139.738;2023-07-29T06:14:04;100319.50;;;46.63;25.98
9415;BME280;4746;35.664;139.738;2023-07-29T06:16:32;100324.59;;;46.40;25.93
9415;BME280;4746;35.664;139.738;2023-07-29T06:18:59;100316.78;;;45.94;26.64
9415;BME280;4746;35.664;139.738;2023-07-29T06:21:27;100298.88;;;45.93;26.86
9415;BME280;4746;35.664;139.738;2023-07-29T06:23:54;100291.03;;;46.72;26.15
9415;BME280;4746;35.664;139.738;2023-07-29T06:26:22;100316.50;;;48.53;24.00
9415;BME280;4746;35.664;139.738;2023-07-29T06:28:49;100304.94;;;49.96;22.24
9415;BME280;4746;35.664;139.738;2023-07-29T06:31:19;100292.50;;;51.11;20.91
9415;BME280;4746;35.664;139.738;2023-07-29T06:33:47;100298.22;;;51.97;20.18
9415;BME280;4746;35.664;139.738;2023-07-29T06:36:15;100305.25;;;52.78;19.81
9415;BME280;4746;35.664;139.738;2023-07-29T06:38:42;100284.59;;;53.28;19.17
9415;BME280;4746;35.664;139.738;2023-07-29T06:41:10;100291.44;;;54.08;18.58
9415;BME280;4746;35.664;139.738;2023-07-29T06:43:37;100293.78;;;54.51;18.28
9415;BME280;4746;35.664;139.738;2023-07-29T06:46:05;100303.25;;;55.05;17.71
9415;BME280;4746;35.664;139.738;2023-07-29T06:48:32;100297.72;;;55.49;17.22
9415;BME280;4746;35.664;139.738;2023-07-29T06:51:00;100279.66;;;56.07;16.88
9415;BME280;4746;35.664;139.738;2023-07-29T06:53:29;100282.66;;;56.63;16.22
9415;BME280;4746;35.664;139.738;2023-07-29T06:55:57;100278.13;;;57.15;16.26
9415;BME280;4746;35.664;139.738;2023-07-29T06:58:24;100295.59;;;57.39;15.75
9415;BME280;4746;35.664;139.738;2023-07-29T07:00:52;100284.63;;;57.81;15.41
9415;BME280;4746;35.664;139.738;2023-07-29T07:03:19;100288.34;;;58.18;15.00
9415;BME280;4746;35.664;139.738;2023-07-29T07:05:47;100277.44;;;58.27;14.98
9415;BME280;4746;35.664;139.738;2023-07-29T07:08:14;100278.09;;;58.37;14.80
9415;BME280;4746;35.664;139.738;2023-07-29T07:10:42;100263.50;;;58.73;14.73
9415;BME280;4746;35.664;139.738;2023-07-29T07:13:09;100276.31;;;58.64;14.55
9415;BME280;4746;35.664;139.738;2023-07-29T07:15:37;100266.88;;;59.02;14.32
9415;BME280;4746;35.664;139.738;2023-07-29T07:18:04;100266.75;;;59.39;14.10
9415;BME280;4746;35.664;139.738;2023-07-29T07:20:32;100272.09;;;59.49;14.08
9415;BME280;4746;35.664;139.738;2023-07-29T07:22:59;100294.38;;;59.71;13.63
9415;BME280;4746;35.664;139.738;2023-07-29T07:25:27;100273.38;;;59.24;14.00
9415;BME280;4746;35.664;139.738;2023-07-29T07:27:55;100267.75;;;59.29;13.97
9415;BME280;4746;35.664;139.738;2023-07-29T07:30:22;100279.06;;;59.46;13.97
9415;BME280;4746;35.664;139.738;2023-07-29T07:32:50;100250.88;;;59.44;13.84
9415;BME280;4746;35.664;139.738;2023-07-29T07:35:17;100263.72;;;59.54;13.61
9415;BME280;4746;35.664;139.738;2023-07-29T07:37:45;100252.41;;;59.37;13.60
9415;BME280;4746;35.664;139.738;2023-07-29T07:40:13;100265.72;;;59.35;13.93
9415;BME280;4746;35.664;139.738;2023-07-29T07:42:40;100256.31;;;59.04;14.08
9415;BME280;4746;35.664;139.738;2023-07-29T07:45:08;100252.03;;;59.12;14.29
9415;BME280;4746;35.664;139.738;2023-07-29T07:47:36;100256.53;;;59.21;14.06
9415;BME280;4746;35.664;139.738;2023-07-29T07:50:04;100258.50;;;58.89;14.47
9415;BME280;4746;35.664;139.738;2023-07-29T07:52:32;100265.03;;;58.79;14.48
9415;BME280;4746;35.664;139.738;2023-07-29T07:55:00;100266.91;;;58.65;14.33
9415;BME280;4746;35.664;139.738;2023-07-29T07:57:27;100254.56;;;58.76;14.68
9415;BME280;4746;35.664;139.738;2023-07-29T07:59:54;100269.22;;;58.77;14.66
9415;BME280;4746;35.664;139.738;2023-07-29T08:02:22;100269.28;;;58.90;14.59
9415;BME280;4746;35.664;139.738;2023-07-29T08:04:49;100286.19;;;58.70;14.35
9415;BME280;4746;35.664;139.738;2023-07-29T08:07:17;100270.13;;;58.17;15.01
9415;BME280;4746;35.664;139.738;2023-07-29T08:09:45;100257.88;;;58.00;15.60
9415;BME280;4746;35.664;139.738;2023-07-29T08:12:12;100279.75;;;57.73;14.84
9415;BME280;4746;35.664;139.738;2023-07-29T08:14:41;100279.34;;;57.33;15.43
9415;BME280;4746;35.664;139.738;2023-07-29T08:17:09;100270.06;;;56.90;15.24
9415;BME280;4746;35.664;139.738;2023-07-29T08:19:36;100274.97;;;56.60;15.69
9415;BME280;4746;35.664;139.738;2023-07-29T08:22:04;100272.72;;;56.19;16.03
9415;BME280;4746;35.664;139.738;2023-07-29T08:24:32;100273.75;;;56.33;15.71
9415;BME280;4746;35.664;139.738;2023-07-29T08:27:02;100289.06;;;56.54;16.00
9415;BME280;4746;35.664;139.738;2023-07-29T08:29:30;100290.28;;;56.38;16.12
9415;BME280;4746;35.664;139.738;2023-07-29T08:31:58;100285.41;;;56.20;16.10
9415;BME280;4746;35.664;139.738;2023-07-29T08:34:25;100272.56;;;55.96;16.30
9415;BME280;4746;35.664;139.738;2023-07-29T08:36:53;100279.75;;;55.77;16.79
9415;BME280;4746;35.664;139.738;2023-07-29T08:39:20;100251.41;;;55.71;16.41
9415;BME280;4746;35.664;139.738;2023-07-29T08:42:08;100272.38;;;55.47;16.51
9415;BME280;4746;35.664;139.738;2023-07-29T08:44:45;100263.66;;;55.21;16.85
9415;BME280;4746;35.664;139.738;2023-07-29T08:47:16;100265.25;;;54.87;16.93
9415;BME280;4746;35.664;139.738;2023-07-29T08:49:46;100280.56;;;54.38;16.88
9415;BME280;4746;35.664;139.738;2023-07-29T08:52:15;100304.00;;;53.53;17.94
9415;BME280;4746;35.664;139.738;2023-07-29T08:54:43;100284.00;;;52.95;18.70
9415;BME280;4746;35.664;139.738;2023-07-29T08:57:11;100285.69;;;52.43;19.11
9415;BME280;4746;35.664;139.738;2023-07-29T08:59:39;100264.94;;;52.05;18.96
9415;BME280;4746;35.664;139.738;2023-07-29T09:02:07;100273.53;;;51.54;20.01
9415;BME280;4746;35.664;139.738;2023-07-29T09:04:35;100291.78;;;50.72;20.48
9415;BME280;4746;35.664;139.738;2023-07-29T09:07:03;100300.66;;;49.66;21.87
9415;BME280;4746;35.664;139.738;2023-07-29T09:09:33;100312.84;;;48.48;22.72
9415;BME280;4746;35.664;139.738;2023-07-29T09:12:00;100289.44;;;47.69;23.19
9415;BME280;4746;35.664;139.738;2023-07-29T09:14:28;100302.50;;;47.05;24.06
9415;BME280;4746;35.664;139.738;2023-07-29T09:16:56;100295.72;;;46.52;24.48
9415;BME280;4746;35.664;139.738;2023-07-29T09:19:26;100299.28;;;46.03;24.69
9415;BME280;4746;35.664;139.738;2023-07-29T09:21:54;100291.78;;;44.76;26.05
9415;BME280;4746;35.664;139.738;2023-07-29T09:24:22;100298.19;;;43.47;28.00
9415;BME280;4746;35.664;139.738;2023-07-29T09:26:51;100300.16;;;42.27;29.36
9415;BME280;4746;35.664;139.738;2023-07-29T09:29:28;100317.53;;;41.30;31.14
9415;BME280;4746;35.664;139.738;2023-07-29T09:32:22;100307.06;;;40.38;31.99
9415;BME280;4746;35.664;139.738;2023-07-29T09:34:50;100304.06;;;39.71;34.34
9415;BME280;4746;35.664;139.738;2023-07-29T09:37:24;100314.31;;;39.19;35.32
9415;BME280;4746;35.664;139.738;2023-07-29T09:39:52;100308.53;;;38.67;36.36
9415;BME280;4746;35.664;139.738;2023-07-29T09:42:22;100320.78;;;38.28;36.60
9415;BME280;4746;35.664;139.738;2023-07-29T09:44:50;100307.00;;;37.90;37.59
9415;BME280;4746;35.664;139.738;2023-07-29T09:47:26;100310.66;;;37.55;38.35
9415;BME280;4746;35.664;139.738;2023-07-29T09:49:54;100306.00;;;37.23;39.05
9415;BME280;4746;35.664;139.738;2023-07-29T09:52:23;100307.81;;;36.97;40.21
9415;BME280;4746;35.664;139.738;2023-07-29T09:54:51;100308.84;;;36.69;40.28
9415;BME280;4746;35.664;139.738;2023-07-29T09:57:21;100295.91;;;36.47;40.56
9415;BME280;4746;35.664;139.738;2023-07-29T09:59:56;100299.75;;;36.35;40.96
9415;BME280;4746;35.664;139.738;2023-07-29T10:02:24;100285.97;;;36.13;41.46
9415;BME280;4746;35.664;139.738;2023-07-29T10:04:56;100327.63;;;35.97;41.53
9415;BME280;4746;35.664;139.738;2023-07-29T10:07:25;100307.31;;;35.77;41.79
9415;BME280;4746;35.664;139.738;2023-07-29T10:09:56;100317.59;;;35.62;42.08
9415;BME280;4746;35.664;139.738;2023-07-29T10:12:26;100303.44;;;35.52;42.39
9415;BME280;4746;35.664;139.738;2023-07-29T10:15:04;100316.09;;;35.41;42.44
9415;BME280;4746;35.664;139.738;2023-07-29T10:17:38;100304.47;;;35.33;43.17
9415;BME280;4746;35.664;139.738;2023-07-29T10:20:08;100312.47;;;35.23;43.48
9415;BME280;4746;35.664;139.738;2023-07-29T10:22:40;100317.91;;;35.12;44.08
9415;BME280;4746;35.664;139.738;2023-07-29T10:25:22;100322.16;;;35.05;43.78
9415;BME280;4746;35.664;139.738;2023-07-29T10:28:07;100326.31;;;34.89;44.12
9415;BME280;4746;35.664;139.738;2023-07-29T10:30:35;100336.69;;;34.73;44.84
9415;BME280;4746;35.664;139.738;2023-07-29T10:33:05;100311.59;;;34.66;44.96
9415;BME280;4746;35.664;139.738;2023-07-29T10:35:34;100332.16;;;34.55;45.25
9415;BME280;4746;35.664;139.738;2023-07-29T10:38:03;100334.06;;;34.43;45.63
9415;BME280;4746;35.664;139.738;2023-07-29T10:40:50;100329.16;;;34.39;45.37
9415;BME280;4746;35.664;139.738;2023-07-29T10:43:37;100333.06;;;34.35;46.20
9415;BME280;4746;35.664;139.738;2023-07-29T10:46:19;100338.78;;;34.30;46.63
9415;BME280;4746;35.664;139.738;2023-07-29T10:48:56;100341.84;;;34.26;46.42
9415;BME280;4746;35.664;139.738;2023-07-29T10:51:35;100346.59;;;34.22;47.26
9415;BME280;4746;35.664;139.738;2023-07-29T10:56:49;100338.91;;;34.19;47.54
9415;BME280;4746;35.664;139.738;2023-07-29T11:02:00;100351.19;;;34.11;48.22
9415;BME280;4746;35.664;139.738;2023-07-29T11:04:29;100356.34;;;34.03;49.01
9415;BME280;4746;35.664;139.738;2023-07-29T11:09:54;100369.50;;;34.04;49.01
9415;BME280;4746;35.664;139.738;2023-07-29T11:12:47;100364.56;;;34.00;48.89
9415;BME280;4746;35.664;139.738;2023-07-29T11:15:28;100374.03;;;33.93;49.48
9415;BME280;4746;35.664;139.738;2023-07-29T11:20:30;100375.28;;;33.89;49.87
9415;BME280;4746;35.664;139.738;2023-07-29T11:23:01;100379.59;;;33.81;50.41
9415;BME280;4746;35.664;139.738;2023-07-29T11:25:31;100378.53;;;33.72;50.41
9415;BME280;4746;35.664;139.738;2023-07-29T11:28:00;100377.84;;;33.70;51.15
9415;BME280;4746;35.664;139.738;2023-07-29T11:30:28;100380.88;;;33.66;51.38
9415;BME280;4746;35.664;139.738;2023-07-29T11:33:00;100370.50;;;33.63;51.49
9415;BME280;4746;35.664;139.738;2023-07-29T11:35:28;100370.63;;;33.61;51.80
9415;BME280;4746;35.664;139.738;2023-07-29T11:37:56;100371.72;;;33.59;51.60
9415;BME280;4746;35.664;139.738;2023-07-29T11:40:24;100370.91;;;33.58;52.20
9415;BME280;4746;35.664;139.738;2023-07-29T11:42:53;100374.13;;;33.62;51.85
9415;BME280;4746;35.664;139.738;2023-07-29T11:45:23;100369.41;;;33.65;52.29
9415;BME280;4746;35.664;139.738;2023-07-29T11:47:50;100369.41;;;33.65;52.40
9415;BME280;4746;35.664;139.738;2023-07-29T11:50:18;100375.69;;;33.64;52.51
9415;BME280;4746;35.664;139.738;2023-07-29T11:52:47;100377.50;;;33.64;52.36
9415;BME280;4746;35.664;139.738;2023-07-29T11:55:15;100369.66;;;33.62;52.82
9415;BME280;4746;35.664;139.738;2023-07-29T11:57:43;100380.28;;;33.62;52.65
9415;BME280;4746;35.664;139.738;2023-07-29T12:00:12;100381.16;;;33.63;52.61
9415;BME280;4746;35.664;139.738;2023-07-29T12:02:43;100378.00;;;33.58;52.65
9415;BME280;4746;35.664;139.738;2023-07-29T12:05:14;100374.78;;;33.54;52.39
9415;BME280;4746;35.664;139.738;2023-07-29T12:07:44;100375.16;;;33.50;52.69
9415;BME280;4746;35.664;139.738;2023-07-29T12:10:12;100372.88;;;33.45;52.81
9415;BME280;4746;35.664;139.738;2023-07-29T12:12:50;100371.03;;;33.46;52.75
9415;BME280;4746;35.664;139.738;2023-07-29T12:15:29;100389.78;;;33.44;52.67
9415;BME280;4746;35.664;139.738;2023-07-29T12:17:58;100371.69;;;33.38;52.96
9415;BME280;4746;35.664;139.738;2023-07-29T12:20:29;100386.81;;;33.38;53.57
9415;BME280;4746;35.664;139.738;2023-07-29T12:22:59;100395.28;;;33.32;53.82
9415;BME280;4746;35.664;139.738;2023-07-29T12:25:32;100377.19;;;33.26;53.56
9415;BME280;4746;35.664;139.738;2023-07-29T12:28:08;100376.34;;;33.25;53.54
9415;BME280;4746;35.664;139.738;2023-07-29T12:30:42;100390.63;;;33.24;53.38
9415;BME280;4746;35.664;139.738;2023-07-29T12:33:10;100381.19;;;33.20;53.67
9415;BME280;4746;35.664;139.738;2023-07-29T12:35:38;100380.09;;;33.23;53.75
9415;BME280;4746;35.664;139.738;2023-07-29T12:38:06;100378.28;;;33.23;53.74
9415;BME280;4746;35.664;139.738;2023-07-29T12:40:39;100383.09;;;33.29;53.47
9415;BME280;4746;35.664;139.738;2023-07-29T12:43:07;100385.31;;;33.24;53.57
9415;BME280;4746;35.664;139.738;2023-07-29T12:45:38;100364.75;;;33.26;54.05
9415;BME280;4746;35.664;139.738;2023-07-29T12:48:12;100378.03;;;33.26;53.77
9415;BME280;4746;35.664;139.738;2023-07-29T12:50:39;100390.03;;;33.21;53.86
9415;BME280;4746;35.664;139.738;2023-07-29T12:53:09;100388.19;;;33.21;53.29
9415;BME280;4746;35.664;139.738;2023-07-29T12:55:38;100391.81;;;33.20;53.37
9415;BME280;4746;35.664;139.738;2023-07-29T12:58:06;100398.09;;;33.19;53.76
9415;BME280;4746;35.664;139.738;2023-07-29T13:00:33;100395.44;;;33.19;53.01
9415;BME280;4746;35.664;139.738;2023-07-29T13:03:01;100382.16;;;33.19;52.48
9415;BME280;4746;35.664;139.738;2023-07-29T13:05:32;100384.72;;;33.21;53.07
9415;BME280;4746;35.664;139.738;2023-07-29T13:07:59;100386.41;;;33.22;52.41
9415;BME280;4746;35.664;139.738;2023-07-29T13:10:27;100385.31;;;33.24;52.29
9415;BME280;4746;35.664;139.738;2023-07-29T13:12:55;100383.59;;;33.23;52.18
9415;BME280;4746;35.664;139.738;2023-07-29T13:15:22;100379.72;;;33.27;52.15
9415;BME280;4746;35.664;139.738;2023-07-29T13:17:50;100385.03;;;33.27;51.28
9415;BME280;4746;35.664;139.738;2023-07-29T13:20:17;100381.66;;;33.25;51.17
9415;BME280;4746;35.664;139.738;2023-07-29T13:22:45;100386.84;;;33.27;51.10